sensor_id;sensor_type;location;lat;lon;timestamp;P1;durP1;ratioP1;P2;durP2;ratioP2
68097;SDS011;54886;47.036;15.466;2023-03-21T00:01:10;17.75;;;9.15;;
68097;SDS011;54886;47.036;15.466;2023-03-21T00:03:36;12.40;;;6.80;;
68097;SDS011;54886;47.036;15.466;2023-03-21T00:06:06;13.52;;;6.75;;
68097;SDS011;54886;47.036;15.466;2023-03-21T00:08:33;16.08;;;7.43;;
68097;SDS011;54886;47.036;15.466;2023-03-21T00:11:00;13.30;;;7.05;;
68097;SDS011;54886;47.036;15.466;2023-03-21T00:13:27;16.15;;;7.70;;
68097;SDS011;54886;47.036;15.466;2023-03-21T00:15:56;16.73;;;7.90;;
68097;SDS011;54886;47.036;15.466;2023-03-21T00:18:27;16.10;;;7.70;;
68097;SDS011;54886;47.036;15.466;2023-03-21T00:20:56;14.68;;;7.82;;
68097;SDS011;54886;47.036;15.466;2023-03-21T00:23:23;16.02;;;8.43;;
68097;SDS011;54886;47.036;15.466;2023-03-21T00:25:53;17.65;;;7.50;;
68097;SDS011;54886;47.036;15.466;2023-03-21T00:28:19;15.13;;;7.10;;
68097;SDS011;54886;47.036;15.466;2023-03-21T00:30:45;14.55;;;7.18;;
68097;SDS011;54886;47.036;15.466;2023-03-21T00:33:10;18.52;;;7.70;;
68097;SDS011;54886;47.036;15.466;2023-03-21T00:35:37;15.50;;;7.67;;
68097;SDS011;54886;47.036;15.466;2023-03-21T00:38:03;16.13;;;7.40;;
68097;SDS011;54886;47.036;15.466;2023-03-21T00:40:29;17.40;;;6.93;;
68097;SDS011;54886;47.036;15.466;2023-03-21T00:42:54;15.23;;;7.65;;
68097;SDS011;54886;47.036;15.466;2023-03-21T00:45:20;13.77;;;6.88;;
68097;SDS011;54886;47.036;15.466;2023-03-21T00:47:46;14.95;;;7.40;;
68097;SDS011;54886;47.036;15.466;2023-03-21T00:50:11;15.35;;;7.53;;
68097;SDS011;54886;47.036;15.466;2023-03-21T00:52:37;15.93;;;7.60;;
68097;SDS011;54886;47.036;15.466;2023-03-21T00:55:03;14.95;;;6.90;;
68097;SDS011;54886;47.036;15.466;2023-03-21T00:57:30;12.05;;;6.45;;
68097;SDS011;54886;47.036;15.466;2023-03-21T00:59:55;12.45;;;6.63;;
68097;SDS011;54886;47.036;15.466;2023-03-21T01:02:22;11.50;;;6.55;;
68097;SDS011;54886;47.036;15.466;2023-03-21T01:04:51;10.88;;;6.13;;
68097;SDS011;54886;47.036;15.466;2023-03-21T01:07:19;11.27;;;6.10;;
68097;SDS011;54886;47.036;15.466;2023-03-21T01:09:46;11.07;;;5.70;;
68097;SDS011;54886;47.036;15.466;2023-03-21T01:12:11;11.65;;;6.00;;
68097;SDS011;54886;47.036;15.466;2023-03-21T01:14:37;10.70;;;5.70;;
68097;SDS011;54886;47.036;15.466;2023-03-21T01:17:03;10.85;;;5.47;;
68097;SDS011;54886;47.036;15.466;2023-03-21T01:19:29;9.52;;;4.90;;
68097;SDS011;54886;47.036;15.466;2023-03-21T01:21:55;10.82;;;5.43;;
68097;SDS011;54886;47.036;15.466;2023-03-21T01:24:21;11.98;;;5.45;;
68097;SDS011;54886;47.036;15.466;2023-03-21T01:26:47;9.65;;;5.13;;
68097;SDS011;54886;47.036;15.466;2023-03-21T01:29:12;7.75;;;4.63;;
68097;SDS011;54886;47.036;15.466;2023-03-21T01:31:38;9.52;;;4.93;;
68097;SDS011;54886;47.036;15.466;2023-03-21T01:34:03;9.32;;;4.72;;
68097;SDS011;54886;47.036;15.466;2023-03-21T01:36:29;9.32;;;4.63;;
68097;SDS011;54886;47.036;15.466;2023-03-21T01:38:54;8.18;;;4.30;;
68097;SDS011;54886;47.036;15.466;2023-03-21T01:41:30;10.35;;;4.75;;
68097;SDS011;54886;47.036;15.466;2023-03-21T01:43:57;9.77;;;5.85;;
68097;SDS011;54886;47.036;15.466;2023-03-21T01:46:42;8.00;;;4.93;;
68097;SDS011;54886;47.036;15.466;2023-03-21T01:51:51;11.20;;;6.20;;
68097;SDS011;54886;47.036;15.466;2023-03-21T01:54:25;10.98;;;6.00;;
68097;SDS011;54886;47.036;15.466;2023-03-21T01:56:54;11.55;;;6.03;;
68097;SDS011;54886;47.036;15.466;2023-03-21T02:02:08;10.15;;;5.50;;
68097;SDS011;54886;47.036;15.466;2023-03-21T02:04:38;9.82;;;5.55;;
68097;SDS011;54886;47.036;15.466;2023-03-21T02:09:36;9.73;;;5.65;;
68097;SDS011;54886;47.036;15.466;2023-03-21T02:14:31;11.13;;;5.43;;
68097;SDS011;54886;47.036;15.466;2023-03-21T02:25:32;9.63;;;5.05;;
68097;SDS011;54886;47.036;15.466;2023-03-21T02:33:58;11.30;;;5.28;;
68097;SDS011;54886;47.036;15.466;2023-03-21T02:39:00;10.15;;;4.75;;
68097;SDS011;54886;47.036;15.466;2023-03-21T02:44:34;11.30;;;5.65;;
68097;SDS011;54886;47.036;15.466;2023-03-21T02:47:11;9.52;;;5.47;;
68097;SDS011;54886;47.036;15.466;2023-03-21T02:49:55;8.65;;;5.30;;
68097;SDS011;54886;47.036;15.466;2023-03-21T02:52:28;7.75;;;4.75;;
68097;SDS011;54886;47.036;15.466;2023-03-21T02:54:57;8.77;;;5.22;;
68097;SDS011;54886;47.036;15.466;2023-03-21T02:57:30;9.45;;;5.38;;
68097;SDS011;54886;47.036;15.466;2023-03-21T02:59:56;9.77;;;5.20;;
68097;SDS011;54886;47.036;15.466;2023-03-21T03:02:24;8.82;;;5.25;;
68097;SDS011;54886;47.036;15.466;2023-03-21T03:04:51;8.68;;;4.78;;
68097;SDS011;54886;47.036;15.466;2023-03-21T03:15:29;9.77;;;5.38;;
68097;SDS011;54886;47.036;15.466;2023-03-21T03:24:00;9.65;;;5.35;;
68097;SDS011;54886;47.036;15.466;2023-03-21T03:29:00;9.65;;;4.80;;
68097;SDS011;54886;47.036;15.466;2023-03-21T03:31:30;8.35;;;5.13;;
68097;SDS011;54886;47.036;15.466;2023-03-21T03:34:00;10.98;;;5.65;;
68097;SDS011;54886;47.036;15.466;2023-03-21T03:36:32;8.27;;;5.13;;
68097;SDS011;54886;47.036;15.466;2023-03-21T03:39:03;9.60;;;5.25;;
68097;SDS011;54886;47.036;15.466;2023-03-21T03:41:33;9.70;;;5.28;;
68097;SDS011;54886;47.036;15.466;2023-03-21T03:44:04;9.45;;;5.43;;
68097;SDS011;54886;47.036;15.466;2023-03-21T03:49:21;8.35;;;4.80;;
68097;SDS011;54886;47.036;15.466;2023-03-21T03:52:01;9.43;;;4.95;;
68097;SDS011;54886;47.036;15.466;2023-03-21T03:54:29;8.57;;;5.20;;
68097;SDS011;54886;47.036;15.466;2023-03-21T03:57:07;11.50;;;5.68;;
68097;SDS011;54886;47.036;15.466;2023-03-21T03:59:37;10.00;;;5.30;;
68097;SDS011;54886;47.036;15.466;2023-03-21T04:02:04;12.90;;;5.40;;
68097;SDS011;54886;47.036;15.466;2023-03-21T04:04:29;9.80;;;5.25;;
68097;SDS011;54886;47.036;15.466;2023-03-21T04:06:55;9.55;;;5.10;;
68097;SDS011;54886;47.036;15.466;2023-03-21T04:09:21;9.95;;;5.07;;
68097;SDS011;54886;47.036;15.466;2023-03-21T04:11:47;9.55;;;5.53;;
68097;SDS011;54886;47.036;15.466;2023-03-21T04:14:13;10.02;;;5.38;;
68097;SDS011;54886;47.036;15.466;2023-03-21T04:16:39;10.90;;;5.15;;
68097;SDS011;54886;47.036;15.466;2023-03-21T04:19:04;11.75;;;5.50;;
68097;SDS011;54886;47.036;15.466;2023-03-21T04:21:30;11.45;;;4.97;;
68097;SDS011;54886;47.036;15.466;2023-03-21T04:23:55;8.35;;;5.15;;
68097;SDS011;54886;47.036;15.466;2023-03-21T04:26:21;10.43;;;5.47;;
68097;SDS011;54886;47.036;15.466;2023-03-21T04:28:48;9.77;;;4.97;;
68097;SDS011;54886;47.036;15.466;2023-03-21T04:31:13;10.23;;;5.03;;
68097;SDS011;54886;47.036;15.466;2023-03-21T04:33:41;8.95;;;5.20;;
68097;SDS011;54886;47.036;15.466;2023-03-21T04:36:07;8.90;;;5.00;;
68097;SDS011;54886;47.036;15.466;2023-03-21T04:38:33;10.95;;;5.10;;
68097;SDS011;54886;47.036;15.466;2023-03-21T04:40:59;9.18;;;4.78;;
68097;SDS011;54886;47.036;15.466;2023-03-21T04:43:25;9.48;;;5.20;;
68097;SDS011;54886;47.036;15.466;2023-03-21T04:45:52;10.25;;;4.93;;
68097;SDS011;54886;47.036;15.466;2023-03-21T04:48:17;11.20;;;5.88;;
68097;SDS011;54886;47.036;15.466;2023-03-21T04:50:44;8.75;;;4.95;;
68097;SDS011;54886;47.036;15.466;2023-03-21T04:53:10;8.98;;;4.80;;
68097;SDS011;54886;47.036;15.466;2023-03-21T04:55:36;10.48;;;5.40;;
68097;SDS011;54886;47.036;15.466;2023-03-21T04:58:02;9.30;;;4.68;;
68097;SDS011;54886;47.036;15.466;2023-03-21T05:00:29;8.50;;;5.30;;
68097;SDS011;54886;47.036;15.466;2023-03-21T05:02:54;9.30;;;5.00;;
68097;SDS011;54886;47.036;15.466;2023-03-21T05:05:21;9.73;;;4.97;;
68097;SDS011;54886;47.036;15.466;2023-03-21T05:07:47;9.30;;;5.40;;
68097;SDS011;54886;47.036;15.466;2023-03-21T05:10:12;9.65;;;5.32;;
68097;SDS011;54886;47.036;15.466;2023-03-21T05:12:38;8.85;;;5.30;;
68097;SDS011;54886;47.036;15.466;2023-03-21T05:15:03;10.15;;;5.70;;
68097;SDS011;54886;47.036;15.466;2023-03-21T05:17:29;9.15;;;5.38;;
68097;SDS011;54886;47.036;15.466;2023-03-21T05:19:55;9.95;;;5.32;;
68097;SDS011;54886;47.036;15.466;2023-03-21T05:22:20;9.90;;;5.22;;
68097;SDS011;54886;47.036;15.466;2023-03-21T05:24:48;9.32;;;5.05;;
68097;SDS011;54886;47.036;15.466;2023-03-21T05:27:17;10.77;;;5.65;;
68097;SDS011;54886;47.036;15.466;2023-03-21T05:30:06;10.70;;;5.57;;
68097;SDS011;54886;47.036;15.466;2023-03-21T05:32:40;10.00;;;5.30;;
68097;SDS011;54886;47.036;15.466;2023-03-21T05:35:06;10.15;;;5.45;;
68097;SDS011;54886;47.036;15.466;2023-03-21T05:37:32;12.63;;;5.82;;
68097;SDS011;54886;47.036;15.466;2023-03-21T05:39:57;10.57;;;5.70;;
68097;SDS011;54886;47.036;15.466;2023-03-21T05:42:23;10.38;;;5.45;;
68097;SDS011;54886;47.036;15.466;2023-03-21T05:44:49;11.27;;;5.60;;
68097;SDS011;54886;47.036;15.466;2023-03-21T05:47:15;11.00;;;5.60;;
68097;SDS011;54886;47.036;15.466;2023-03-21T05:49:41;11.07;;;5.60;;
68097;SDS011;54886;47.036;15.466;2023-03-21T05:52:07;11.05;;;5.40;;
68097;SDS011;54886;47.036;15.466;2023-03-21T05:54:33;9.30;;;5.28;;
68097;SDS011;54886;47.036;15.466;2023-03-21T05:56:58;9.80;;;5.55;;
68097;SDS011;54886;47.036;15.466;2023-03-21T05:59:24;11.38;;;5.32;;
68097;SDS011;54886;47.036;15.466;2023-03-21T06:01:50;8.23;;;5.03;;
68097;SDS011;54886;47.036;15.466;2023-03-21T06:04:16;10.35;;;5.45;;
68097;SDS011;54886;47.036;15.466;2023-03-21T06:06:41;10.20;;;4.95;;
68097;SDS011;54886;47.036;15.466;2023-03-21T06:09:06;12.25;;;5.70;;
68097;SDS011;54886;47.036;15.466;2023-03-21T06:11:33;9.82;;;4.90;;
68097;SDS011;54886;47.036;15.466;2023-03-21T06:14:00;8.65;;;4.22;;
68097;SDS011;54886;47.036;15.466;2023-03-21T06:16:26;9.43;;;4.32;;
68097;SDS011;54886;47.036;15.466;2023-03-21T06:18:52;10.77;;;4.55;;
68097;SDS011;54886;47.036;15.466;2023-03-21T06:21:18;13.05;;;4.60;;
68097;SDS011;54886;47.036;15.466;2023-03-21T06:23:44;11.60;;;5.55;;
68097;SDS011;54886;47.036;15.466;2023-03-21T06:26:11;8.43;;;4.80;;
68097;SDS011;54886;47.036;15.466;2023-03-21T06:28:37;12.10;;;6.20;;
68097;SDS011;54886;47.036;15.466;2023-03-21T06:31:02;16.80;;;8.75;;
68097;SDS011;54886;47.036;15.466;2023-03-21T06:33:28;12.77;;;7.57;;
68097;SDS011;54886;47.036;15.466;2023-03-21T06:35:55;13.98;;;6.28;;
68097;SDS011;54886;47.036;15.466;2023-03-21T06:38:22;10.13;;;5.47;;
68097;SDS011;54886;47.036;15.466;2023-03-21T06:40:47;11.95;;;5.45;;
68097;SDS011;54886;47.036;15.466;2023-03-21T06:43:13;10.18;;;5.38;;
68097;SDS011;54886;47.036;15.466;2023-03-21T06:45:40;10.68;;;4.60;;
68097;SDS011;54886;47.036;15.466;2023-03-21T06:48:05;10.45;;;4.30;;
68097;SDS011;54886;47.036;15.466;2023-03-21T06:50:31;10.95;;;4.50;;
68097;SDS011;54886;47.036;15.466;2023-03-21T06:52:56;12.68;;;4.65;;
68097;SDS011;54886;47.036;15.466;2023-03-21T06:55:23;10.32;;;4.63;;
68097;SDS011;54886;47.036;15.466;2023-03-21T06:57:51;8.35;;;4.20;;
68097;SDS011;54886;47.036;15.466;2023-03-21T07:00:19;9.68;;;4.90;;
68097;SDS011;54886;47.036;15.466;2023-03-21T07:02:45;9.25;;;5.03;;
68097;SDS011;54886;47.036;15.466;2023-03-21T07:05:11;10.25;;;5.50;;
68097;SDS011;54886;47.036;15.466;2023-03-21T07:07:37;10.50;;;5.00;;
68097;SDS011;54886;47.036;15.466;2023-03-21T07:10:03;9.77;;;4.68;;
68097;SDS011;54886;47.036;15.466;2023-03-21T07:12:29;9.82;;;4.88;;
68097;SDS011;54886;47.036;15.466;2023-03-21T07:14:58;16.02;;;4.97;;
68097;SDS011;54886;47.036;15.466;2023-03-21T07:17:24;13.65;;;5.32;;
68097;SDS011;54886;47.036;15.466;2023-03-21T07:19:49;9.80;;;5.22;;
68097;SDS011;54886;47.036;15.466;2023-03-21T07:22:14;14.05;;;5.55;;
68097;SDS011;54886;47.036;15.466;2023-03-21T07:24:40;9.63;;;4.80;;
68097;SDS011;54886;47.036;15.466;2023-03-21T07:27:06;10.43;;;5.28;;
68097;SDS011;54886;47.036;15.466;2023-03-21T07:29:31;10.48;;;4.68;;
68097;SDS011;54886;47.036;15.466;2023-03-21T07:31:56;9.52;;;4.45;;
68097;SDS011;54886;47.036;15.466;2023-03-21T07:34:22;12.20;;;4.50;;
68097;SDS011;54886;47.036;15.466;2023-03-21T07:36:47;13.80;;;5.60;;
68097;SDS011;54886;47.036;15.466;2023-03-21T07:39:13;12.25;;;4.75;;
68097;SDS011;54886;47.036;15.466;2023-03-21T07:41:38;10.38;;;4.50;;
68097;SDS011;54886;47.036;15.466;2023-03-21T07:44:03;9.07;;;5.13;;
68097;SDS011;54886;47.036;15.466;2023-03-21T07:46:29;9.35;;;4.82;;
68097;SDS011;54886;47.036;15.466;2023-03-21T07:48:54;11.73;;;4.97;;
68097;SDS011;54886;47.036;15.466;2023-03-21T07:51:20;11.65;;;5.05;;
68097;SDS011;54886;47.036;15.466;2023-03-21T07:53:45;11.85;;;5.53;;
68097;SDS011;54886;47.036;15.466;2023-03-21T07:56:12;13.25;;;5.70;;
68097;SDS011;54886;47.036;15.466;2023-03-21T07:58:38;13.45;;;5.70;;
68097;SDS011;54886;47.036;15.466;2023-03-21T08:01:03;9.82;;;5.38;;
68097;SDS011;54886;47.036;15.466;2023-03-21T08:03:29;11.15;;;5.65;;
68097;SDS011;54886;47.036;15.466;2023-03-21T08:05:57;10.57;;;5.15;;
68097;SDS011;54886;47.036;15.466;2023-03-21T08:08:25;8.13;;;5.03;;
68097;SDS011;54886;47.036;15.466;2023-03-21T08:10:50;13.85;;;5.00;;
68097;SDS011;54886;47.036;15.466;2023-03-21T08:13:16;10.23;;;4.75;;
68097;SDS011;54886;47.036;15.466;2023-03-21T08:15:41;10.18;;;4.70;;
68097;SDS011;54886;47.036;15.466;2023-03-21T08:18:07;10.93;;;4.45;;
68097;SDS011;54886;47.036;15.466;2023-03-21T08:20:33;6.72;;;3.88;;
68097;SDS011;54886;47.036;15.466;2023-03-21T08:22:58;9.15;;;4.40;;
68097;SDS011;54886;47.036;15.466;2023-03-21T08:25:25;7.22;;;3.90;;
68097;SDS011;54886;47.036;15.466;2023-03-21T08:27:50;7.55;;;3.90;;
68097;SDS011;54886;47.036;15.466;2023-03-21T08:30:17;6.63;;;3.03;;
68097;SDS011;54886;47.036;15.466;2023-03-21T08:32:44;8.77;;;3.33;;
68097;SDS011;54886;47.036;15.466;2023-03-21T08:35:11;8.85;;;3.40;;
68097;SDS011;54886;47.036;15.466;2023-03-21T08:37:38;6.78;;;3.35;;
68097;SDS011;54886;47.036;15.466;2023-03-21T08:40:05;6.77;;;2.50;;
68097;SDS011;54886;47.036;15.466;2023-03-21T08:42:35;9.10;;;2.97;;
68097;SDS011;54886;47.036;15.466;2023-03-21T08:45:01;4.53;;;2.25;;
68097;SDS011;54886;47.036;15.466;2023-03-21T08:47:26;5.63;;;3.05;;
68097;SDS011;54886;47.036;15.466;2023-03-21T08:49:52;8.80;;;2.63;;
68097;SDS011;54886;47.036;15.466;2023-03-21T08:52:17;4.82;;;2.60;;
68097;SDS011;54886;47.036;15.466;2023-03-21T08:54:42;4.88;;;2.60;;
68097;SDS011;54886;47.036;15.466;2023-03-21T08:57:09;5.53;;;2.50;;
68097;SDS011;54886;47.036;15.466;2023-03-21T08:59:35;7.05;;;2.40;;
68097;SDS011;54886;47.036;15.466;2023-03-21T09:02:01;4.60;;;2.63;;
68097;SDS011;54886;47.036;15.466;2023-03-21T09:04:26;4.13;;;2.50;;
68097;SDS011;54886;47.036;15.466;2023-03-21T09:06:51;5.13;;;2.40;;
68097;SDS011;54886;47.036;15.466;2023-03-21T09:09:20;4.32;;;2.35;;
68097;SDS011;54886;47.036;15.466;2023-03-21T09:11:45;5.28;;;2.45;;
68097;SDS011;54886;47.036;15.466;2023-03-21T09:14:10;3.85;;;2.30;;
68097;SDS011;54886;47.036;15.466;2023-03-21T09:16:36;8.65;;;2.30;;
68097;SDS011;54886;47.036;15.466;2023-03-21T09:19:01;6.28;;;2.30;;
68097;SDS011;54886;47.036;15.466;2023-03-21T09:21:28;4.00;;;1.80;;
68097;SDS011;54886;47.036;15.466;2023-03-21T09:23:54;4.13;;;1.88;;
68097;SDS011;54886;47.036;15.466;2023-03-21T09:28:48;3.50;;;1.83;;
68097;SDS011;54886;47.036;15.466;2023-03-21T09:31:14;5.90;;;1.95;;
68097;SDS011;54886;47.036;15.466;2023-03-21T09:33:46;2.80;;;1.65;;
68097;SDS011;54886;47.036;15.466;2023-03-21T09:36:16;2.78;;;2.00;;
68097;SDS011;54886;47.036;15.466;2023-03-21T09:38:46;3.72;;;1.70;;
68097;SDS011;54886;47.036;15.466;2023-03-21T09:46:40;8.23;;;2.17;;
68097;SDS011;54886;47.036;15.466;2023-03-21T09:51:40;5.60;;;2.03;;
68097;SDS011;54886;47.036;15.466;2023-03-21T09:54:17;4.40;;;2.20;;
68097;SDS011;54886;47.036;15.466;2023-03-21T09:56:46;3.08;;;1.70;;
68097;SDS011;54886;47.036;15.466;2023-03-21T09:59:20;2.90;;;1.83;;
68097;SDS011;54886;47.036;15.466;2023-03-21T10:01:51;5.25;;;1.67;;
68097;SDS011;54886;47.036;15.466;2023-03-21T10:04:18;3.47;;;2.00;;
68097;SDS011;54886;47.036;15.466;2023-03-21T10:06:46;2.65;;;1.52;;
68097;SDS011;54886;47.036;15.466;2023-03-21T10:09:20;2.20;;;1.70;;
68097;SDS011;54886;47.036;15.466;2023-03-21T10:11:49;3.05;;;1.50;;
68097;SDS011;54886;47.036;15.466;2023-03-21T10:14:20;5.75;;;1.80;;
68097;SDS011;54886;47.036;15.466;2023-03-21T10:16:54;2.78;;;1.45;;
68097;SDS011;54886;47.036;15.466;2023-03-21T10:19:23;1.92;;;1.50;;
68097;SDS011;54886;47.036;15.466;2023-03-21T10:21:49;4.00;;;1.33;;
68097;SDS011;54886;47.036;15.466;2023-03-21T10:24:20;2.75;;;2.00;;
68097;SDS011;54886;47.036;15.466;2023-03-21T10:26:47;1.95;;;1.40;;
68097;SDS011;54886;47.036;15.466;2023-03-21T10:29:14;2.67;;;1.40;;
68097;SDS011;54886;47.036;15.466;2023-03-21T10:31:42;1.60;;;1.50;;
68097;SDS011;54886;47.036;15.466;2023-03-21T10:36:41;3.78;;;1.38;;
68097;SDS011;54886;47.036;15.466;2023-03-21T10:39:12;5.63;;;1.52;;
68097;SDS011;54886;47.036;15.466;2023-03-21T10:41:42;5.18;;;1.60;;
68097;SDS011;54886;47.036;15.466;2023-03-21T10:44:09;3.30;;;1.27;;
68097;SDS011;54886;47.036;15.466;2023-03-21T10:46:50;1.20;;;1.08;;
68097;SDS011;54886;47.036;15.466;2023-03-21T10:49:17;1.40;;;1.30;;
68097;SDS011;54886;47.036;15.466;2023-03-21T10:51:44;1.93;;;1.10;;
68097;SDS011;54886;47.036;15.466;2023-03-21T10:54:14;2.08;;;1.20;;
68097;SDS011;54886;47.036;15.466;2023-03-21T10:56:44;1.33;;;1.20;;
68097;SDS011;54886;47.036;15.466;2023-03-21T10:59:17;1.45;;;1.25;;
68097;SDS011;54886;47.036;15.466;2023-03-21T11:01:47;1.45;;;1.20;;
68097;SDS011;54886;47.036;15.466;2023-03-21T11:04:19;2.40;;;1.35;;
68097;SDS011;54886;47.036;15.466;2023-03-21T11:09:44;2.58;;;1.27;;
68097;SDS011;54886;47.036;15.466;2023-03-21T11:12:16;1.23;;;1.13;;
68097;SDS011;54886;47.036;15.466;2023-03-21T11:17:22;1.13;;;1.02;;
68097;SDS011;54886;47.036;15.466;2023-03-21T11:19:59;1.58;;;1.05;;
68097;SDS011;54886;47.036;15.466;2023-03-21T11:22:29;1.30;;;1.20;;
68097;SDS011;54886;47.036;15.466;2023-03-21T11:25:07;3.10;;;1.35;;
68097;SDS011;54886;47.036;15.466;2023-03-21T11:27:36;2.97;;;1.30;;
68097;SDS011;54886;47.036;15.466;2023-03-21T11:30:25;1.20;;;1.20;;
68097;SDS011;54886;47.036;15.466;2023-03-21T11:32:55;2.63;;;1.23;;
68097;SDS011;54886;47.036;15.466;2023-03-21T11:35:27;1.20;;;1.20;;
68097;SDS011;54886;47.036;15.466;2023-03-21T11:37:56;3.42;;;1.13;;
68097;SDS011;54886;47.036;15.466;2023-03-21T11:40:23;1.30;;;1.20;;
68097;SDS011;54886;47.036;15.466;2023-03-21T11:42:51;1.98;;;1.15;;
68097;SDS011;54886;47.036;15.466;2023-03-21T11:47:46;2.43;;;1.23;;
68097;SDS011;54886;47.036;15.466;2023-03-21T11:50:15;1.50;;;1.40;;
68097;SDS011;54886;47.036;15.466;2023-03-21T11:52:52;2.50;;;1.50;;
68097;SDS011;54886;47.036;15.466;2023-03-21T11:55:31;1.63;;;1.50;;
68097;SDS011;54886;47.036;15.466;2023-03-21T12:04:03;1.35;;;1.27;;
68097;SDS011;54886;47.036;15.466;2023-03-21T12:06:37;1.52;;;1.42;;
68097;SDS011;54886;47.036;15.466;2023-03-21T12:09:25;1.52;;;1.20;;
68097;SDS011;54886;47.036;15.466;2023-03-21T12:17:32;2.15;;;1.40;;
68097;SDS011;54886;47.036;15.466;2023-03-21T12:20:22;1.50;;;1.40;;
68097;SDS011;54886;47.036;15.466;2023-03-21T12:28:08;1.25;;;1.13;;
68097;SDS011;54886;47.036;15.466;2023-03-21T12:31:00;1.25;;;1.15;;
68097;SDS011;54886;47.036;15.466;2023-03-21T12:33:46;1.40;;;1.30;;
68097;SDS011;54886;47.036;15.466;2023-03-21T12:36:24;1.42;;;1.33;;
68097;SDS011;54886;47.036;15.466;2023-03-21T12:44:16;1.33;;;1.23;;
68097;SDS011;54886;47.036;15.466;2023-03-21T12:46:56;1.90;;;1.25;;
68097;SDS011;54886;47.036;15.466;2023-03-21T12:49:25;2.47;;;1.30;;
68097;SDS011;54886;47.036;15.466;2023-03-21T12:51:56;2.95;;;1.30;;
68097;SDS011;54886;47.036;15.466;2023-03-21T12:54:34;1.92;;;1.52;;
68097;SDS011;54886;47.036;15.466;2023-03-21T13:04:44;8.73;;;3.47;;
68097;SDS011;54886;47.036;15.466;2023-03-21T13:07:16;8.35;;;3.00;;
68097;SDS011;54886;47.036;15.466;2023-03-21T13:09:44;7.72;;;3.00;;
68097;SDS011;54886;47.036;15.466;2023-03-21T13:15:06;2.30;;;1.52;;
68097;SDS011;54886;47.036;15.466;2023-03-21T13:23:13;2.70;;;1.40;;
68097;SDS011;54886;47.036;15.466;2023-03-21T13:25:44;3.33;;;1.50;;
68097;SDS011;54886;47.036;15.466;2023-03-21T13:28:16;2.08;;;1.60;;
68097;SDS011;54886;47.036;15.466;2023-03-21T13:30:47;5.40;;;1.80;;
68097;SDS011;54886;47.036;15.466;2023-03-21T13:33:14;1.80;;;1.42;;
68097;SDS011;54886;47.036;15.466;2023-03-21T13:35:49;2.25;;;1.27;;
68097;SDS011;54886;47.036;15.466;2023-03-21T13:38:29;3.60;;;1.50;;
68097;SDS011;54886;47.036;15.466;2023-03-21T13:41:13;2.47;;;1.33;;
68097;SDS011;54886;47.036;15.466;2023-03-21T13:54:00;1.52;;;1.38;;
68097;SDS011;54886;47.036;15.466;2023-03-21T13:56:26;1.67;;;1.25;;
68097;SDS011;54886;47.036;15.466;2023-03-21T13:58:53;3.13;;;1.50;;
68097;SDS011;54886;47.036;15.466;2023-03-21T14:01:38;2.63;;;1.50;;
68097;SDS011;54886;47.036;15.466;2023-03-21T14:04:15;1.73;;;1.55;;
68097;SDS011;54886;47.036;15.466;2023-03-21T14:07:28;3.53;;;1.42;;
68097;SDS011;54886;47.036;15.466;2023-03-21T14:09:47;2.92;;;1.73;;
68097;SDS011;54886;47.036;15.466;2023-03-21T14:12:15;2.92;;;1.40;;
68097;SDS011;54886;47.036;15.466;2023-03-21T14:14:46;2.13;;;1.45;;
68097;SDS011;54886;47.036;15.466;2023-03-21T14:17:30;1.50;;;1.40;;
68097;SDS011;54886;47.036;15.466;2023-03-21T14:22:38;4.30;;;1.58;;
68097;SDS011;54886;47.036;15.466;2023-03-21T14:25:06;4.57;;;1.52;;
68097;SDS011;54886;47.036;15.466;2023-03-21T14:27:37;2.55;;;1.52;;
68097;SDS011;54886;47.036;15.466;2023-03-21T14:30:05;3.65;;;1.58;;
68097;SDS011;54886;47.036;15.466;2023-03-21T14:32:35;2.72;;;1.48;;
68097;SDS011;54886;47.036;15.466;2023-03-21T14:35:01;1.70;;;1.35;;
68097;SDS011;54886;47.036;15.466;2023-03-21T14:37:36;3.13;;;1.50;;
68097;SDS011;54886;47.036;15.466;2023-03-21T14:40:05;1.42;;;1.33;;
68097;SDS011;54886;47.036;15.466;2023-03-21T14:42:41;1.50;;;1.40;;
68097;SDS011;54886;47.036;15.466;2023-03-21T14:45:24;2.15;;;1.48;;
68097;SDS011;54886;47.036;15.466;2023-03-21T14:47:55;1.88;;;1.40;;
68097;SDS011;54886;47.036;15.466;2023-03-21T14:50:47;3.60;;;1.40;;
68097;SDS011;54886;47.036;15.466;2023-03-21T14:53:17;1.60;;;1.35;;
68097;SDS011;54886;47.036;15.466;2023-03-21T14:58:24;5.13;;;1.60;;
68097;SDS011;54886;47.036;15.466;2023-03-21T15:00:50;2.53;;;1.40;;
68097;SDS011;54886;47.036;15.466;2023-03-21T15:03:19;2.97;;;1.60;;
68097;SDS011;54886;47.036;15.466;2023-03-21T15:05:46;3.00;;;1.50;;
68097;SDS011;54886;47.036;15.466;2023-03-21T15:08:13;4.13;;;1.40;;
68097;SDS011;54886;47.036;15.466;2023-03-21T15:10:41;1.80;;;1.42;;
68097;SDS011;54886;47.036;15.466;2023-03-21T15:13:18;1.92;;;1.50;;
68097;SDS011;54886;47.036;15.466;2023-03-21T15:15:46;2.33;;;1.60;;
68097;SDS011;54886;47.036;15.466;2023-03-21T15:18:14;3.08;;;1.60;;
68097;SDS011;54886;47.036;15.466;2023-03-21T15:20:46;2.22;;;1.42;;
68097;SDS011;54886;47.036;15.466;2023-03-21T15:23:16;2.22;;;1.40;;
68097;SDS011;54886;47.036;15.466;2023-03-21T15:25:55;1.85;;;1.35;;
68097;SDS011;54886;47.036;15.466;2023-03-21T15:28:20;2.00;;;1.40;;
68097;SDS011;54886;47.036;15.466;2023-03-21T15:30:47;3.08;;;1.40;;
68097;SDS011;54886;47.036;15.466;2023-03-21T15:33:14;3.08;;;1.35;;
68097;SDS011;54886;47.036;15.466;2023-03-21T15:35:42;3.83;;;1.42;;
68097;SDS011;54886;47.036;15.466;2023-03-21T15:43:53;2.22;;;1.50;;
68097;SDS011;54886;47.036;15.466;2023-03-21T15:46:40;2.63;;;1.55;;
68097;SDS011;54886;47.036;15.466;2023-03-21T15:52:03;1.50;;;1.40;;
68097;SDS011;54886;47.036;15.466;2023-03-21T15:54:44;2.17;;;1.45;;
68097;SDS011;54886;47.036;15.466;2023-03-21T15:57:25;2.75;;;1.50;;
68097;SDS011;54886;47.036;15.466;2023-03-21T16:00:07;1.73;;;1.35;;
68097;SDS011;54886;47.036;15.466;2023-03-21T16:02:42;2.70;;;1.55;;
68097;SDS011;54886;47.036;15.466;2023-03-21T16:07:48;2.53;;;1.80;;
68097;SDS011;54886;47.036;15.466;2023-03-21T16:10:22;2.97;;;2.00;;
68097;SDS011;54886;47.036;15.466;2023-03-21T16:12:53;6.63;;;1.75;;
68097;SDS011;54886;47.036;15.466;2023-03-21T16:15:19;1.73;;;1.63;;
68097;SDS011;54886;47.036;15.466;2023-03-21T16:17:52;3.08;;;1.75;;
68097;SDS011;54886;47.036;15.466;2023-03-21T16:20:21;3.58;;;1.60;;
68097;SDS011;54886;47.036;15.466;2023-03-21T16:22:48;1.75;;;1.40;;
68097;SDS011;54886;47.036;15.466;2023-03-21T16:25:13;1.90;;;1.40;;
68097;SDS011;54886;47.036;15.466;2023-03-21T16:27:39;2.60;;;1.60;;
68097;SDS011;54886;47.036;15.466;2023-03-21T16:30:06;4.43;;;1.60;;
68097;SDS011;54886;47.036;15.466;2023-03-21T16:32:32;1.45;;;1.30;;
68097;SDS011;54886;47.036;15.466;2023-03-21T16:34:58;5.43;;;1.60;;
68097;SDS011;54886;47.036;15.466;2023-03-21T16:37:24;1.60;;;1.50;;
68097;SDS011;54886;47.036;15.466;2023-03-21T16:39:49;4.10;;;1.40;;
68097;SDS011;54886;47.036;15.466;2023-03-21T16:42:15;2.65;;;1.25;;
68097;SDS011;54886;47.036;15.466;2023-03-21T16:44:40;1.50;;;1.40;;
68097;SDS011;54886;47.036;15.466;2023-03-21T16:47:16;3.17;;;1.50;;
68097;SDS011;54886;47.036;15.466;2023-03-21T16:49:43;1.63;;;1.25;;
68097;SDS011;54886;47.036;15.466;2023-03-21T16:52:09;3.63;;;1.70;;
68097;SDS011;54886;47.036;15.466;2023-03-21T16:54:36;1.60;;;1.42;;
68097;SDS011;54886;47.036;15.466;2023-03-21T16:57:03;2.07;;;1.47;;